KGCC

Gillette-Campbell County Airport

Gillette, Wyoming, USA
KGCC 241720Z 2418/2518 33007KT P6SM BKN070 FM242100 34011KT P6SM -SHRA OVC050 FM250600 31006KT P6SM OVC025 FM251000 31012KT P6SM BKN150
Issued Valid From Valid To
Sep-24 @ 17:20 UTC
(6 hours ago)
Sep-24 @ 18:00 UTC
(5 hours ago)
Sep-25 @ 18:00 UTC
(in 19 hours)
Expired Click to View Sep-24 @ 18:00 to Sep-24 @ 21:00
KGCC 241720Z 2418/2518 33007KT P6SM BKN070
Wind Visibility Clouds
330° at 7 knots Greater than 6 miles
  • Broken at 7,000' AGL
From Sep-24 @ 21:00 to Sep-25 @ 06:00
FM242100 34011KT P6SM -SHRA OVC050
Wind Visibility Clouds Conditions
340° at 11 knots Greater than 6 miles
  • Overcast at 5,000' AGL
  • Light Rain
From Sep-25 @ 06:00 to Sep-25 @ 10:00
FM250600 31006KT P6SM OVC025
Wind Visibility Clouds
310° at 6 knots Greater than 6 miles
  • Overcast at 2,500' AGL
From Sep-25 @ 10:00 to Sep-25 @ 18:00
FM251000 31012KT P6SM BKN150
Wind Visibility Clouds
310° at 12 knots Greater than 6 miles
  • Broken at 15,000' AGL
KGCC 241720Z 2418/2518 33007KT P6SM BKN070 FM242100 34011KT P6SM -SHRA OVC050 FM250600 31006KT P6SM OVC025 FM251000 31012KT P6SM BKN150
Issued Sep-24 @ 17:20 UTC
(6 hours ago)
Valid From Sep-24 @ 18:00 UTC
(5 hours ago)
Valid To Sep-25 @ 18:00 UTC
(in 19 hours)
Sep-24 @ 18:00 - Sep-24 @ 21:00
Wind Visibility
330° at 7 knots Greater than 6 miles
Clouds
  • Broken at 7,000' AGL
From Sep-24 @ 21:00 - Sep-25 @ 06:00
Wind Visibility
340° at 11 knots Greater than 6 miles
Clouds
  • Overcast at 5,000' AGL
Conditions
  • Light Rain
From Sep-25 @ 06:00 - Sep-25 @ 10:00
Wind Visibility
310° at 6 knots Greater than 6 miles
Clouds
  • Overcast at 2,500' AGL
From Sep-25 @ 10:00 - Sep-25 @ 18:00
Wind Visibility
310° at 12 knots Greater than 6 miles
Clouds
  • Broken at 15,000' AGL